sensor_id;sensor_type;location;lat;lon;timestamp;temperature;humidity
57390;DHT22;43217;52.694;6.214;2022-10-31T00:00:20;12.30;99.90
57390;DHT22;43217;52.694;6.214;2022-10-31T00:02:46;12.20;99.90
57390;DHT22;43217;52.694;6.214;2022-10-31T00:05:11;12.10;99.90
57390;DHT22;43217;52.694;6.214;2022-10-31T00:07:37;12.10;99.90
57390;DHT22;43217;52.694;6.214;2022-10-31T00:10:03;12.10;99.90
57390;DHT22;43217;52.694;6.214;2022-10-31T00:12:29;12.00;99.90
57390;DHT22;43217;52.694;6.214;2022-10-31T00:14:55;12.00;99.90
57390;DHT22;43217;52.694;6.214;2022-10-31T00:17:20;11.90;99.90
57390;DHT22;43217;52.694;6.214;2022-10-31T00:19:46;11.80;99.90
57390;DHT22;43217;52.694;6.214;2022-10-31T00:22:11;11.80;99.90
57390;DHT22;43217;52.694;6.214;2022-10-31T00:24:37;11.80;99.90
57390;DHT22;43217;52.694;6.214;2022-10-31T00:27:03;11.70;99.90
57390;DHT22;43217;52.694;6.214;2022-10-31T00:29:28;11.70;99.90
57390;DHT22;43217;52.694;6.214;2022-10-31T00:31:54;11.80;99.90
57390;DHT22;43217;52.694;6.214;2022-10-31T00:34:19;11.80;99.90
57390;DHT22;43217;52.694;6.214;2022-10-31T00:36:45;11.80;99.90
57390;DHT22;43217;52.694;6.214;2022-10-31T00:39:11;11.80;99.90
57390;DHT22;43217;52.694;6.214;2022-10-31T00:41:36;11.90;99.90
57390;DHT22;43217;52.694;6.214;2022-10-31T00:44:02;11.90;99.90
57390;DHT22;43217;52.694;6.214;2022-10-31T00:46:27;11.90;99.90
57390;DHT22;43217;52.694;6.214;2022-10-31T00:48:53;11.90;99.90
57390;DHT22;43217;52.694;6.214;2022-10-31T00:51:19;11.90;99.90
57390;DHT22;43217;52.694;6.214;2022-10-31T00:53:44;11.90;99.90
57390;DHT22;43217;52.694;6.214;2022-10-31T00:56:10;11.90;99.90
57390;DHT22;43217;52.694;6.214;2022-10-31T00:58:36;11.80;99.90
57390;DHT22;43217;52.694;6.214;2022-10-31T01:01:01;11.80;99.90
57390;DHT22;43217;52.694;6.214;2022-10-31T01:03:30;11.80;99.90
57390;DHT22;43217;52.694;6.214;2022-10-31T01:06:08;11.80;99.90
57390;DHT22;43217;52.694;6.214;2022-10-31T01:08:35;11.80;99.90
57390;DHT22;43217;52.694;6.214;2022-10-31T01:11:12;11.70;99.90
57390;DHT22;43217;52.694;6.214;2022-10-31T01:13:39;11.70;99.90
57390;DHT22;43217;52.694;6.214;2022-10-31T01:16:06;11.70;99.90
57390;DHT22;43217;52.694;6.214;2022-10-31T01:18:32;11.80;99.90
57390;DHT22;43217;52.694;6.214;2022-10-31T01:21:04;11.80;99.90
57390;DHT22;43217;52.694;6.214;2022-10-31T01:23:30;11.80;99.90
57390;DHT22;43217;52.694;6.214;2022-10-31T01:26:08;11.80;99.90
57390;DHT22;43217;52.694;6.214;2022-10-31T01:28:35;11.80;99.90
57390;DHT22;43217;52.694;6.214;2022-10-31T01:31:06;11.70;99.90
57390;DHT22;43217;52.694;6.214;2022-10-31T01:33:32;11.60;99.90
57390;DHT22;43217;52.694;6.214;2022-10-31T01:35:58;11.60;99.90
57390;DHT22;43217;52.694;6.214;2022-10-31T01:38:24;11.60;99.90
57390;DHT22;43217;52.694;6.214;2022-10-31T01:40:50;11.50;99.90
57390;DHT22;43217;52.694;6.214;2022-10-31T01:43:16;11.40;99.90
57390;DHT22;43217;52.694;6.214;2022-10-31T01:45:45;11.50;99.90
57390;DHT22;43217;52.694;6.214;2022-10-31T01:48:17;11.50;99.90
57390;DHT22;43217;52.694;6.214;2022-10-31T01:50:45;11.50;99.90
57390;DHT22;43217;52.694;6.214;2022-10-31T01:53:12;11.40;99.90
57390;DHT22;43217;52.694;6.214;2022-10-31T01:55:44;11.40;99.90
57390;DHT22;43217;52.694;6.214;2022-10-31T01:58:23;11.30;99.90
57390;DHT22;43217;52.694;6.214;2022-10-31T02:00:54;11.30;99.90
57390;DHT22;43217;52.694;6.214;2022-10-31T02:03:21;11.30;99.90
57390;DHT22;43217;52.694;6.214;2022-10-31T02:05:48;11.30;99.90
57390;DHT22;43217;52.694;6.214;2022-10-31T02:08:21;11.30;99.90
57390;DHT22;43217;52.694;6.214;2022-10-31T02:10:48;11.30;99.90
57390;DHT22;43217;52.694;6.214;2022-10-31T02:13:15;11.30;99.90
57390;DHT22;43217;52.694;6.214;2022-10-31T02:15:44;11.30;99.90
57390;DHT22;43217;52.694;6.214;2022-10-31T02:18:10;11.30;99.90
57390;DHT22;43217;52.694;6.214;2022-10-31T02:20:57;11.30;99.90
57390;DHT22;43217;52.694;6.214;2022-10-31T02:35:27;11.20;99.90
57390;DHT22;43217;52.694;6.214;2022-10-31T02:38:11;11.20;99.90
57390;DHT22;43217;52.694;6.214;2022-10-31T02:46:14;11.00;99.90
57390;DHT22;43217;52.694;6.214;2022-10-31T02:48:41;11.00;99.90
57390;DHT22;43217;52.694;6.214;2022-10-31T02:51:09;11.00;99.90
57390;DHT22;43217;52.694;6.214;2022-10-31T02:53:37;11.00;99.90
57390;DHT22;43217;52.694;6.214;2022-10-31T02:56:15;11.00;99.90
57390;DHT22;43217;52.694;6.214;2022-10-31T02:58:54;10.90;99.90
57390;DHT22;43217;52.694;6.214;2022-10-31T03:01:42;10.90;99.90
57390;DHT22;43217;52.694;6.214;2022-10-31T03:07:03;10.80;99.90
57390;DHT22;43217;52.694;6.214;2022-10-31T03:09:54;10.80;99.90
57390;DHT22;43217;52.694;6.214;2022-10-31T03:15:17;10.70;99.90
57390;DHT22;43217;52.694;6.214;2022-10-31T03:20:19;10.50;99.90
57390;DHT22;43217;52.694;6.214;2022-10-31T03:22:45;10.50;99.90
57390;DHT22;43217;52.694;6.214;2022-10-31T03:25:12;10.50;99.90
57390;DHT22;43217;52.694;6.214;2022-10-31T03:27:39;10.40;99.90
57390;DHT22;43217;52.694;6.214;2022-10-31T03:30:06;10.40;99.90
57390;DHT22;43217;52.694;6.214;2022-10-31T03:32:51;10.50;99.90
57390;DHT22;43217;52.694;6.214;2022-10-31T03:35:21;10.50;99.90
57390;DHT22;43217;52.694;6.214;2022-10-31T03:37:48;10.40;99.90
57390;DHT22;43217;52.694;6.214;2022-10-31T03:40:16;10.40;99.90
57390;DHT22;43217;52.694;6.214;2022-10-31T03:42:48;10.30;99.90
57390;DHT22;43217;52.694;6.214;2022-10-31T03:45:23;10.30;99.90
57390;DHT22;43217;52.694;6.214;2022-10-31T03:47:50;10.30;99.90
57390;DHT22;43217;52.694;6.214;2022-10-31T03:50:17;10.30;99.90
57390;DHT22;43217;52.694;6.214;2022-10-31T03:52:53;10.20;99.90
57390;DHT22;43217;52.694;6.214;2022-10-31T03:55:25;10.20;99.90
57390;DHT22;43217;52.694;6.214;2022-10-31T03:58:02;10.30;99.90
57390;DHT22;43217;52.694;6.214;2022-10-31T04:00:30;10.30;99.90
57390;DHT22;43217;52.694;6.214;2022-10-31T04:03:16;10.30;99.90
57390;DHT22;43217;52.694;6.214;2022-10-31T04:05:44;10.30;99.90
57390;DHT22;43217;52.694;6.214;2022-10-31T04:08:14;10.20;99.90
57390;DHT22;43217;52.694;6.214;2022-10-31T04:10:41;10.30;99.90
57390;DHT22;43217;52.694;6.214;2022-10-31T04:13:14;10.20;99.90
57390;DHT22;43217;52.694;6.214;2022-10-31T04:15:43;10.20;99.90
57390;DHT22;43217;52.694;6.214;2022-10-31T04:18:10;10.10;99.90
57390;DHT22;43217;52.694;6.214;2022-10-31T04:20:38;10.10;99.90
57390;DHT22;43217;52.694;6.214;2022-10-31T04:23:04;10.10;99.90
57390;DHT22;43217;52.694;6.214;2022-10-31T04:25:30;10.10;99.90
57390;DHT22;43217;52.694;6.214;2022-10-31T04:27:56;10.10;99.90
57390;DHT22;43217;52.694;6.214;2022-10-31T04:30:22;10.10;99.90
57390;DHT22;43217;52.694;6.214;2022-10-31T04:32:47;10.10;99.90
57390;DHT22;43217;52.694;6.214;2022-10-31T04:35:13;10.00;99.90
57390;DHT22;43217;52.694;6.214;2022-10-31T04:37:39;10.00;99.90
57390;DHT22;43217;52.694;6.214;2022-10-31T04:40:05;10.00;99.90
57390;DHT22;43217;52.694;6.214;2022-10-31T04:42:31;10.00;99.90
57390;DHT22;43217;52.694;6.214;2022-10-31T04:44:57;10.00;99.90
57390;DHT22;43217;52.694;6.214;2022-10-31T04:47:22;10.10;99.90
57390;DHT22;43217;52.694;6.214;2022-10-31T04:49:48;10.00;99.90
57390;DHT22;43217;52.694;6.214;2022-10-31T04:52:14;10.00;99.90
57390;DHT22;43217;52.694;6.214;2022-10-31T04:54:39;9.90;99.90
57390;DHT22;43217;52.694;6.214;2022-10-31T04:57:05;9.80;99.90
57390;DHT22;43217;52.694;6.214;2022-10-31T04:59:30;9.80;99.90
57390;DHT22;43217;52.694;6.214;2022-10-31T05:01:56;9.70;99.90
57390;DHT22;43217;52.694;6.214;2022-10-31T05:04:22;9.70;99.90
57390;DHT22;43217;52.694;6.214;2022-10-31T05:06:47;9.70;99.90
57390;DHT22;43217;52.694;6.214;2022-10-31T05:09:13;9.70;99.90
57390;DHT22;43217;52.694;6.214;2022-10-31T05:11:38;9.70;99.90
57390;DHT22;43217;52.694;6.214;2022-10-31T05:14:04;9.70;99.90
57390;DHT22;43217;52.694;6.214;2022-10-31T05:16:30;9.80;99.90
57390;DHT22;43217;52.694;6.214;2022-10-31T05:18:55;9.80;99.90
57390;DHT22;43217;52.694;6.214;2022-10-31T05:21:21;9.80;99.90
57390;DHT22;43217;52.694;6.214;2022-10-31T05:23:46;9.80;99.90
57390;DHT22;43217;52.694;6.214;2022-10-31T05:26:12;9.80;99.90
57390;DHT22;43217;52.694;6.214;2022-10-31T05:28:37;9.80;99.90
57390;DHT22;43217;52.694;6.214;2022-10-31T05:31:03;9.80;99.90
57390;DHT22;43217;52.694;6.214;2022-10-31T05:33:29;9.80;99.90
57390;DHT22;43217;52.694;6.214;2022-10-31T05:35:54;9.90;99.90
57390;DHT22;43217;52.694;6.214;2022-10-31T05:38:20;9.90;99.90
57390;DHT22;43217;52.694;6.214;2022-10-31T05:40:46;9.80;99.90
57390;DHT22;43217;52.694;6.214;2022-10-31T05:43:11;9.80;99.90
57390;DHT22;43217;52.694;6.214;2022-10-31T05:45:37;9.80;99.90
57390;DHT22;43217;52.694;6.214;2022-10-31T05:48:03;9.80;99.90
57390;DHT22;43217;52.694;6.214;2022-10-31T05:50:30;9.80;99.90
57390;DHT22;43217;52.694;6.214;2022-10-31T05:53:01;9.80;99.90
57390;DHT22;43217;52.694;6.214;2022-10-31T05:55:27;9.80;99.90
57390;DHT22;43217;52.694;6.214;2022-10-31T05:57:54;9.80;99.90
57390;DHT22;43217;52.694;6.214;2022-10-31T06:00:21;9.70;99.90
57390;DHT22;43217;52.694;6.214;2022-10-31T06:02:46;9.70;99.90
57390;DHT22;43217;52.694;6.214;2022-10-31T06:05:12;9.60;99.90
57390;DHT22;43217;52.694;6.214;2022-10-31T06:07:38;9.60;99.90
57390;DHT22;43217;52.694;6.214;2022-10-31T06:10:06;9.60;99.90
57390;DHT22;43217;52.694;6.214;2022-10-31T06:12:31;9.60;99.90
57390;DHT22;43217;52.694;6.214;2022-10-31T06:14:57;9.60;99.90
57390;DHT22;43217;52.694;6.214;2022-10-31T06:17:23;9.60;99.90
57390;DHT22;43217;52.694;6.214;2022-10-31T06:19:49;9.60;99.90
57390;DHT22;43217;52.694;6.214;2022-10-31T06:22:14;9.60;99.90
57390;DHT22;43217;52.694;6.214;2022-10-31T06:24:40;9.60;99.90
57390;DHT22;43217;52.694;6.214;2022-10-31T06:27:05;9.60;99.90
57390;DHT22;43217;52.694;6.214;2022-10-31T06:29:31;9.60;99.90
57390;DHT22;43217;52.694;6.214;2022-10-31T06:31:57;9.70;99.90
57390;DHT22;43217;52.694;6.214;2022-10-31T06:34:23;9.70;99.90
57390;DHT22;43217;52.694;6.214;2022-10-31T06:36:48;9.70;99.90
57390;DHT22;43217;52.694;6.214;2022-10-31T06:39:14;9.70;99.90
57390;DHT22;43217;52.694;6.214;2022-10-31T06:41:40;9.70;99.90
57390;DHT22;43217;52.694;6.214;2022-10-31T06:44:07;9.70;99.90
57390;DHT22;43217;52.694;6.214;2022-10-31T06:46:33;9.70;99.90
57390;DHT22;43217;52.694;6.214;2022-10-31T06:48:58;9.70;99.90
57390;DHT22;43217;52.694;6.214;2022-10-31T06:51:24;9.70;99.90
57390;DHT22;43217;52.694;6.214;2022-10-31T06:53:49;9.70;99.90
57390;DHT22;43217;52.694;6.214;2022-10-31T06:56:15;9.70;99.90
57390;DHT22;43217;52.694;6.214;2022-10-31T06:58:41;9.60;99.90
57390;DHT22;43217;52.694;6.214;2022-10-31T07:01:06;9.70;99.90
57390;DHT22;43217;52.694;6.214;2022-10-31T07:03:32;9.70;99.90
57390;DHT22;43217;52.694;6.214;2022-10-31T07:05:58;9.70;99.90
57390;DHT22;43217;52.694;6.214;2022-10-31T07:08:24;9.70;99.90
57390;DHT22;43217;52.694;6.214;2022-10-31T07:10:52;9.60;99.90
57390;DHT22;43217;52.694;6.214;2022-10-31T07:13:18;9.60;99.90
57390;DHT22;43217;52.694;6.214;2022-10-31T07:15:46;9.50;99.90
57390;DHT22;43217;52.694;6.214;2022-10-31T07:18:12;9.50;99.90
57390;DHT22;43217;52.694;6.214;2022-10-31T07:20:38;9.50;99.90
57390;DHT22;43217;52.694;6.214;2022-10-31T07:23:03;9.40;99.90
57390;DHT22;43217;52.694;6.214;2022-10-31T07:25:29;9.50;99.90
57390;DHT22;43217;52.694;6.214;2022-10-31T07:27:55;9.60;99.90
57390;DHT22;43217;52.694;6.214;2022-10-31T07:30:21;9.70;99.90
57390;DHT22;43217;52.694;6.214;2022-10-31T07:32:48;9.70;99.90
57390;DHT22;43217;52.694;6.214;2022-10-31T07:35:16;9.70;99.90
57390;DHT22;43217;52.694;6.214;2022-10-31T07:37:41;9.80;99.90
57390;DHT22;43217;52.694;6.214;2022-10-31T07:40:08;9.80;99.90
57390;DHT22;43217;52.694;6.214;2022-10-31T07:42:37;9.80;99.90
57390;DHT22;43217;52.694;6.214;2022-10-31T07:45:09;9.90;99.90
57390;DHT22;43217;52.694;6.214;2022-10-31T07:47:39;9.90;99.90
57390;DHT22;43217;52.694;6.214;2022-10-31T07:50:08;10.00;99.90
57390;DHT22;43217;52.694;6.214;2022-10-31T07:52:34;10.00;99.90
57390;DHT22;43217;52.694;6.214;2022-10-31T07:54:59;10.00;99.90
57390;DHT22;43217;52.694;6.214;2022-10-31T07:57:25;10.10;99.90
57390;DHT22;43217;52.694;6.214;2022-10-31T07:59:51;10.10;99.90
57390;DHT22;43217;52.694;6.214;2022-10-31T08:02:16;10.10;99.90
57390;DHT22;43217;52.694;6.214;2022-10-31T08:04:42;10.20;99.90
57390;DHT22;43217;52.694;6.214;2022-10-31T08:07:07;10.30;99.90
57390;DHT22;43217;52.694;6.214;2022-10-31T08:09:33;10.30;99.90
57390;DHT22;43217;52.694;6.214;2022-10-31T08:11:58;10.40;99.90
57390;DHT22;43217;52.694;6.214;2022-10-31T08:14:25;10.50;99.90
57390;DHT22;43217;52.694;6.214;2022-10-31T08:16:52;10.50;99.90
57390;DHT22;43217;52.694;6.214;2022-10-31T08:19:18;10.60;99.90
57390;DHT22;43217;52.694;6.214;2022-10-31T08:21:43;10.60;99.90
57390;DHT22;43217;52.694;6.214;2022-10-31T08:24:09;10.70;99.90
57390;DHT22;43217;52.694;6.214;2022-10-31T08:26:34;10.80;99.90
57390;DHT22;43217;52.694;6.214;2022-10-31T08:29:00;10.90;99.90
57390;DHT22;43217;52.694;6.214;2022-10-31T08:31:27;10.90;99.90
57390;DHT22;43217;52.694;6.214;2022-10-31T08:33:53;11.00;99.90
57390;DHT22;43217;52.694;6.214;2022-10-31T08:36:21;11.00;99.90
57390;DHT22;43217;52.694;6.214;2022-10-31T08:38:47;11.10;99.90
57390;DHT22;43217;52.694;6.214;2022-10-31T08:41:13;11.10;99.90
57390;DHT22;43217;52.694;6.214;2022-10-31T08:43:39;11.10;99.90
57390;DHT22;43217;52.694;6.214;2022-10-31T08:46:05;11.20;99.90
57390;DHT22;43217;52.694;6.214;2022-10-31T08:48:32;11.20;99.90
57390;DHT22;43217;52.694;6.214;2022-10-31T08:50:58;11.30;99.90
57390;DHT22;43217;52.694;6.214;2022-10-31T08:53:25;11.30;99.90
57390;DHT22;43217;52.694;6.214;2022-10-31T08:55:54;11.40;99.90
57390;DHT22;43217;52.694;6.214;2022-10-31T08:58:20;11.40;99.90
57390;DHT22;43217;52.694;6.214;2022-10-31T09:00:47;11.50;99.90
57390;DHT22;43217;52.694;6.214;2022-10-31T09:03:24;11.60;99.90
57390;DHT22;43217;52.694;6.214;2022-10-31T09:05:55;11.80;99.90
57390;DHT22;43217;52.694;6.214;2022-10-31T09:08:21;11.90;99.90
57390;DHT22;43217;52.694;6.214;2022-10-31T09:10:46;12.00;99.90
57390;DHT22;43217;52.694;6.214;2022-10-31T09:13:16;12.10;99.90
57390;DHT22;43217;52.694;6.214;2022-10-31T09:15:43;12.20;99.90
57390;DHT22;43217;52.694;6.214;2022-10-31T09:18:19;12.30;99.90
57390;DHT22;43217;52.694;6.214;2022-10-31T09:20:46;12.30;99.90
57390;DHT22;43217;52.694;6.214;2022-10-31T09:23:21;12.40;99.90
57390;DHT22;43217;52.694;6.214;2022-10-31T09:25:48;12.40;99.90
57390;DHT22;43217;52.694;6.214;2022-10-31T09:28:16;12.40;99.90
57390;DHT22;43217;52.694;6.214;2022-10-31T09:30:42;12.40;99.90
57390;DHT22;43217;52.694;6.214;2022-10-31T09:33:12;12.50;99.90
57390;DHT22;43217;52.694;6.214;2022-10-31T09:35:38;12.60;99.90
57390;DHT22;43217;52.694;6.214;2022-10-31T09:38:13;12.70;99.90
57390;DHT22;43217;52.694;6.214;2022-10-31T09:40:44;12.80;99.90
57390;DHT22;43217;52.694;6.214;2022-10-31T09:48:35;12.90;99.90
57390;DHT22;43217;52.694;6.214;2022-10-31T09:51:10;12.90;99.90
57390;DHT22;43217;52.694;6.214;2022-10-31T09:56:22;12.90;99.90
57390;DHT22;43217;52.694;6.214;2022-10-31T09:58:54;12.90;99.90
57390;DHT22;43217;52.694;6.214;2022-10-31T10:01:42;12.90;99.90
57390;DHT22;43217;52.694;6.214;2022-10-31T10:06:55;12.90;99.90
57390;DHT22;43217;52.694;6.214;2022-10-31T10:09:25;13.00;99.90
57390;DHT22;43217;52.694;6.214;2022-10-31T10:12:13;13.00;99.90
57390;DHT22;43217;52.694;6.214;2022-10-31T10:17:58;13.20;99.90
57390;DHT22;43217;52.694;6.214;2022-10-31T10:20:30;13.30;99.90
57390;DHT22;43217;52.694;6.214;2022-10-31T10:25:34;13.40;99.90
57390;DHT22;43217;52.694;6.214;2022-10-31T10:28:20;13.50;99.90
57390;DHT22;43217;52.694;6.214;2022-10-31T10:31:08;13.60;99.90
57390;DHT22;43217;52.694;6.214;2022-10-31T10:34:06;13.80;99.90
57390;DHT22;43217;52.694;6.214;2022-10-31T10:36:42;13.90;99.90
57390;DHT22;43217;52.694;6.214;2022-10-31T10:39:19;14.00;99.90
57390;DHT22;43217;52.694;6.214;2022-10-31T10:41:48;14.10;99.90
57390;DHT22;43217;52.694;6.214;2022-10-31T10:44:33;14.20;99.90
57390;DHT22;43217;52.694;6.214;2022-10-31T10:47:19;14.20;99.90
57390;DHT22;43217;52.694;6.214;2022-10-31T10:50:14;14.30;99.90
57390;DHT22;43217;52.694;6.214;2022-10-31T10:52:45;14.40;99.90
57390;DHT22;43217;52.694;6.214;2022-10-31T10:55:45;14.40;99.90
57390;DHT22;43217;52.694;6.214;2022-10-31T10:58:14;14.50;99.90
57390;DHT22;43217;52.694;6.214;2022-10-31T11:00:45;14.60;99.90
57390;DHT22;43217;52.694;6.214;2022-10-31T11:03:16;14.60;99.90
57390;DHT22;43217;52.694;6.214;2022-10-31T11:05:56;14.60;99.90
57390;DHT22;43217;52.694;6.214;2022-10-31T11:08:28;14.70;99.90
57390;DHT22;43217;52.694;6.214;2022-10-31T11:11:19;14.70;99.90
57390;DHT22;43217;52.694;6.214;2022-10-31T11:13:50;14.70;99.90
57390;DHT22;43217;52.694;6.214;2022-10-31T11:18:51;14.80;99.90
57390;DHT22;43217;52.694;6.214;2022-10-31T11:21:25;14.80;99.90
57390;DHT22;43217;52.694;6.214;2022-10-31T11:24:12;14.80;99.90
57390;DHT22;43217;52.694;6.214;2022-10-31T11:26:40;14.80;99.90
57390;DHT22;43217;52.694;6.214;2022-10-31T11:29:25;14.80;99.90
57390;DHT22;43217;52.694;6.214;2022-10-31T11:31:53;14.90;99.90
57390;DHT22;43217;52.694;6.214;2022-10-31T11:34:34;14.90;99.90
57390;DHT22;43217;52.694;6.214;2022-10-31T11:39:40;15.00;99.90
57390;DHT22;43217;52.694;6.214;2022-10-31T11:42:06;14.90;99.90
57390;DHT22;43217;52.694;6.214;2022-10-31T11:44:33;15.00;99.90
57390;DHT22;43217;52.694;6.214;2022-10-31T11:47:04;15.00;99.90
57390;DHT22;43217;52.694;6.214;2022-10-31T11:49:36;15.10;99.90
57390;DHT22;43217;52.694;6.214;2022-10-31T11:52:06;15.10;99.90
57390;DHT22;43217;52.694;6.214;2022-10-31T11:57:42;15.10;99.90
57390;DHT22;43217;52.694;6.214;2022-10-31T12:06:05;15.20;99.90
57390;DHT22;43217;52.694;6.214;2022-10-31T12:08:35;15.30;99.90
57390;DHT22;43217;52.694;6.214;2022-10-31T12:13:36;15.30;99.90
57390;DHT22;43217;52.694;6.214;2022-10-31T12:19:13;15.40;99.90
57390;DHT22;43217;52.694;6.214;2022-10-31T12:21:59;15.30;99.90
57390;DHT22;43217;52.694;6.214;2022-10-31T12:24:54;15.30;99.90
57390;DHT22;43217;52.694;6.214;2022-10-31T12:27:32;15.30;99.90
57390;DHT22;43217;52.694;6.214;2022-10-31T12:32:40;15.30;99.90
57390;DHT22;43217;52.694;6.214;2022-10-31T12:45:58;15.40;99.90
57390;DHT22;43217;52.694;6.214;2022-10-31T12:51:47;15.50;99.90
57390;DHT22;43217;52.694;6.214;2022-10-31T12:59:48;15.60;99.90
57390;DHT22;43217;52.694;6.214;2022-10-31T13:02:42;15.70;99.90
57390;DHT22;43217;52.694;6.214;2022-10-31T13:07:59;15.70;99.90
57390;DHT22;43217;52.694;6.214;2022-10-31T13:10:47;15.70;99.90
57390;DHT22;43217;52.694;6.214;2022-10-31T13:18:46;15.70;99.90
57390;DHT22;43217;52.694;6.214;2022-10-31T13:21:22;15.70;99.90
57390;DHT22;43217;52.694;6.214;2022-10-31T13:23:50;15.70;99.90
57390;DHT22;43217;52.694;6.214;2022-10-31T13:26:43;15.70;99.90
57390;DHT22;43217;52.694;6.214;2022-10-31T13:29:31;15.70;99.90
57390;DHT22;43217;52.694;6.214;2022-10-31T13:32:00;15.70;99.90
57390;DHT22;43217;52.694;6.214;2022-10-31T13:34:33;15.70;99.90
57390;DHT22;43217;52.694;6.214;2022-10-31T13:42:21;15.60;99.90
57390;DHT22;43217;52.694;6.214;2022-10-31T13:44:49;15.60;99.90
57390;DHT22;43217;52.694;6.214;2022-10-31T13:47:28;15.60;99.90
57390;DHT22;43217;52.694;6.214;2022-10-31T13:50:06;15.60;99.90
57390;DHT22;43217;52.694;6.214;2022-10-31T13:52:44;15.60;99.90
57390;DHT22;43217;52.694;6.214;2022-10-31T13:55:37;15.60;99.90
57390;DHT22;43217;52.694;6.214;2022-10-31T13:58:29;15.60;99.90
57390;DHT22;43217;52.694;6.214;2022-10-31T14:03:38;15.60;99.90
57390;DHT22;43217;52.694;6.214;2022-10-31T14:06:04;15.60;99.90
57390;DHT22;43217;52.694;6.214;2022-10-31T14:08:34;15.60;99.90
57390;DHT22;43217;52.694;6.214;2022-10-31T14:11:00;15.60;99.90
57390;DHT22;43217;52.694;6.214;2022-10-31T14:13:34;15.60;99.90
57390;DHT22;43217;52.694;6.214;2022-10-31T14:16:16;15.60;99.90
57390;DHT22;43217;52.694;6.214;2022-10-31T14:18:48;15.60;99.90
57390;DHT22;43217;52.694;6.214;2022-10-31T14:23:41;15.60;99.90
57390;DHT22;43217;52.694;6.214;2022-10-31T14:26:31;15.60;99.90
57390;DHT22;43217;52.694;6.214;2022-10-31T14:31:44;15.50;99.90
57390;DHT22;43217;52.694;6.214;2022-10-31T14:50:03;15.50;99.90
57390;DHT22;43217;52.694;6.214;2022-10-31T14:52:30;15.40;99.90
57390;DHT22;43217;52.694;6.214;2022-10-31T14:54:59;15.40;99.90
57390;DHT22;43217;52.694;6.214;2022-10-31T14:57:29;15.40;99.90
57390;DHT22;43217;52.694;6.214;2022-10-31T15:00:04;15.40;99.90
57390;DHT22;43217;52.694;6.214;2022-10-31T15:05:20;15.40;99.90
57390;DHT22;43217;52.694;6.214;2022-10-31T15:08:05;15.40;99.90
57390;DHT22;43217;52.694;6.214;2022-10-31T15:10:32;15.40;99.90
57390;DHT22;43217;52.694;6.214;2022-10-31T15:13:20;15.40;99.90
57390;DHT22;43217;52.694;6.214;2022-10-31T15:15:47;15.40;99.90
57390;DHT22;43217;52.694;6.214;2022-10-31T15:18:17;15.30;99.90
57390;DHT22;43217;52.694;6.214;2022-10-31T15:20:44;15.30;99.90
57390;DHT22;43217;52.694;6.214;2022-10-31T15:23:17;15.30;99.90
57390;DHT22;43217;52.694;6.214;2022-10-31T15:25:46;15.30;99.90
57390;DHT22;43217;52.694;6.214;2022-10-31T15:28:30;15.20;99.90
57390;DHT22;43217;52.694;6.214;2022-10-31T15:30:58;15.20;99.90
57390;DHT22;43217;52.694;6.214;2022-10-31T15:33:41;15.10;99.90
57390;DHT22;43217;52.694;6.214;2022-10-31T15:36:19;15.10;99.90
57390;DHT22;43217;52.694;6.214;2022-10-31T15:38:45;15.10;99.90
57390;DHT22;43217;52.694;6.214;2022-10-31T15:44:29;15.00;99.90
57390;DHT22;43217;52.694;6.214;2022-10-31T15:47:01;15.00;99.90
57390;DHT22;43217;52.694;6.214;2022-10-31T15:49:37;14.90;99.90
57390;DHT22;43217;52.694;6.214;2022-10-31T15:52:12;14.80;99.90
57390;DHT22;43217;52.694;6.214;2022-10-31T15:54:48;14.80;99.90
57390;DHT22;43217;52.694;6.214;2022-10-31T15:57:16;14.80;99.90
57390;DHT22;43217;52.694;6.214;2022-10-31T15:59:51;14.80;99.90
57390;DHT22;43217;52.694;6.214;2022-10-31T16:02:23;14.80;99.90
57390;DHT22;43217;52.694;6.214;2022-10-31T16:04:56;14.80;99.90
57390;DHT22;43217;52.694;6.214;2022-10-31T16:07:22;14.80;99.90
57390;DHT22;43217;52.694;6.214;2022-10-31T16:09:58;14.80;99.90
57390;DHT22;43217;52.694;6.214;2022-10-31T16:12:36;14.70;99.90
57390;DHT22;43217;52.694;6.214;2022-10-31T16:15:03;14.70;99.90
57390;DHT22;43217;52.694;6.214;2022-10-31T16:17:30;14.70;99.90
57390;DHT22;43217;52.694;6.214;2022-10-31T16:20:02;14.70;99.90
57390;DHT22;43217;52.694;6.214;2022-10-31T16:22:35;14.70;99.90
57390;DHT22;43217;52.694;6.214;2022-10-31T16:25:08;14.70;99.90
57390;DHT22;43217;52.694;6.214;2022-10-31T16:27:35;14.70;99.90
57390;DHT22;43217;52.694;6.214;2022-10-31T16:30:50;14.70;99.90
57390;DHT22;43217;52.694;6.214;2022-10-31T16:32:58;14.70;99.90
57390;DHT22;43217;52.694;6.214;2022-10-31T16:35:38;14.70;99.90
57390;DHT22;43217;52.694;6.214;2022-10-31T16:38:04;14.60;99.90
57390;DHT22;43217;52.694;6.214;2022-10-31T16:40:31;14.60;99.90
57390;DHT22;43217;52.694;6.214;2022-10-31T16:42:59;14.60;99.90
57390;DHT22;43217;52.694;6.214;2022-10-31T16:45:27;14.60;99.90
57390;DHT22;43217;52.694;6.214;2022-10-31T16:47:53;14.60;99.90
57390;DHT22;43217;52.694;6.214;2022-10-31T16:50:23;14.60;99.90
57390;DHT22;43217;52.694;6.214;2022-10-31T16:52:49;14.60;99.90
57390;DHT22;43217;52.694;6.214;2022-10-31T16:55:16;14.60;99.90
57390;DHT22;43217;52.694;6.214;2022-10-31T16:57:47;14.50;99.90
57390;DHT22;43217;52.694;6.214;2022-10-31T17:00:17;14.60;99.90
57390;DHT22;43217;52.694;6.214;2022-10-31T17:02:45;14.50;99.90
57390;DHT22;43217;52.694;6.214;2022-10-31T17:05:19;14.60;99.90
57390;DHT22;43217;52.694;6.214;2022-10-31T17:07:45;14.60;99.90
57390;DHT22;43217;52.694;6.214;2022-10-31T17:10:13;14.50;99.90
57390;DHT22;43217;52.694;6.214;2022-10-31T17:12:42;14.50;99.90
57390;DHT22;43217;52.694;6.214;2022-10-31T17:15:23;14.50;99.90
57390;DHT22;43217;52.694;6.214;2022-10-31T17:17:49;14.50;99.90
57390;DHT22;43217;52.694;6.214;2022-10-31T17:20:29;14.50;99.90
57390;DHT22;43217;52.694;6.214;2022-10-31T17:22:55;14.50;99.90
57390;DHT22;43217;52.694;6.214;2022-10-31T17:25:25;14.50;99.90
57390;DHT22;43217;52.694;6.214;2022-10-31T17:27:51;14.50;99.90
57390;DHT22;43217;52.694;6.214;2022-10-31T17:30:18;14.50;99.90
57390;DHT22;43217;52.694;6.214;2022-10-31T17:32:45;14.50;99.90
57390;DHT22;43217;52.694;6.214;2022-10-31T17:35:11;14.50;99.90
57390;DHT22;43217;52.694;6.214;2022-10-31T17:37:38;14.50;99.90
57390;DHT22;43217;52.694;6.214;2022-10-31T17:40:04;14.50;99.90
57390;DHT22;43217;52.694;6.214;2022-10-31T17:42:30;14.50;99.90
57390;DHT22;43217;52.694;6.214;2022-10-31T17:44:55;14.50;99.90
57390;DHT22;43217;52.694;6.214;2022-10-31T17:47:21;14.50;99.90
57390;DHT22;43217;52.694;6.214;2022-10-31T17:49:47;14.50;99.90
57390;DHT22;43217;52.694;6.214;2022-10-31T17:52:12;14.50;99.90
57390;DHT22;43217;52.694;6.214;2022-10-31T17:54:38;14.40;99.90
57390;DHT22;43217;52.694;6.214;2022-10-31T17:57:03;14.50;99.90